createdAt,value
2023-02-11T00:01:31.174Z,0.81
2023-02-11T00:04:00.331Z,0.82
2023-02-11T00:06:30.026Z,0.83
2023-02-11T00:08:58.537Z,0.87
2023-02-11T00:11:30.379Z,0.90
2023-02-11T00:13:58.926Z,0.93
2023-02-11T00:16:28.931Z,0.80
2023-02-11T00:18:57.230Z,0.90
2023-02-11T00:21:26.818Z,0.83
2023-02-11T00:23:57.174Z,0.69
2023-02-11T00:26:27.165Z,0.85
2023-02-11T00:28:55.575Z,0.87
2023-02-11T00:31:24.433Z,0.94
2023-02-11T00:33:54.508Z,1.01
2023-02-11T00:36:25.000Z,1.07
2023-02-11T00:38:54.252Z,1.08
2023-02-11T00:41:23.020Z,1.04
2023-02-11T00:43:51.433Z,0.82
2023-02-11T00:46:19.368Z,0.98
2023-02-11T00:48:47.807Z,0.99
2023-02-11T00:51:17.246Z,1.04
2023-02-11T00:53:45.200Z,1.01
2023-02-11T00:56:13.327Z,1.02
2023-02-11T00:58:41.731Z,1.02
2023-02-11T01:01:09.805Z,0.97
2023-02-11T01:03:38.144Z,0.95
2023-02-11T01:06:06.943Z,0.91
2023-02-11T01:08:37.343Z,0.97
2023-02-11T01:11:07.215Z,0.92
2023-02-11T01:13:37.225Z,0.94
2023-02-11T01:16:08.435Z,0.96
2023-02-11T01:18:37.368Z,0.97
2023-02-11T01:21:06.210Z,0.94
2023-02-11T01:23:34.061Z,0.98
2023-02-11T01:26:03.174Z,0.75
2023-02-11T01:28:31.575Z,1.01
2023-02-11T01:30:59.470Z,1.02
2023-02-11T01:33:27.414Z,1.05
2023-02-11T01:35:55.199Z,1.04
2023-02-11T01:38:25.063Z,0.99
2023-02-11T01:40:55.424Z,1.00
2023-02-11T01:43:26.082Z,0.97
2023-02-11T01:45:59.875Z,0.93
2023-02-11T01:48:30.616Z,0.86
2023-02-11T01:51:01.540Z,0.85
2023-02-11T01:53:48.425Z,0.83
2023-02-11T01:56:34.809Z,0.58
2023-02-11T01:59:07.317Z,0.85
2023-02-11T02:01:35.945Z,0.92
2023-02-11T02:04:05.645Z,0.98
2023-02-11T02:06:36.147Z,0.76
2023-02-11T02:09:07.248Z,0.84
2023-02-11T02:11:35.007Z,0.99
2023-02-11T02:14:04.372Z,0.96
2023-02-11T02:16:35.471Z,1.01
2023-02-11T02:19:19.047Z,1.01
2023-02-11T02:22:14.313Z,1.01
2023-02-11T02:25:01.165Z,0.96
2023-02-11T02:27:37.330Z,1.07
2023-02-11T02:30:21.572Z,1.18
2023-02-11T02:33:02.145Z,1.22
2023-02-11T02:35:39.168Z,1.25
2023-02-11T02:38:09.949Z,1.27
2023-02-11T02:40:42.896Z,1.31
2023-02-11T02:43:11.814Z,1.29
2023-02-11T02:45:39.586Z,1.31
2023-02-11T02:48:08.750Z,1.29
2023-02-11T02:50:37.846Z,1.28
2023-02-11T02:53:14.056Z,1.29
2023-02-11T02:55:53.743Z,1.33
2023-02-11T02:58:40.212Z,1.27
2023-02-11T03:01:16.295Z,1.41
2023-02-11T03:03:50.891Z,1.44
2023-02-11T03:06:22.041Z,1.45
2023-02-11T03:08:54.045Z,1.50
2023-02-11T03:11:22.880Z,1.61
2023-02-11T03:13:51.515Z,1.60
2023-02-11T03:16:22.457Z,1.66
2023-02-11T03:18:54.452Z,1.71
2023-02-11T03:21:22.961Z,1.73
2023-02-11T03:23:52.714Z,1.62
2023-02-11T03:26:25.067Z,1.59
2023-02-11T03:28:56.287Z,1.56
2023-02-11T03:31:33.134Z,1.57
2023-02-11T03:34:08.704Z,1.56
2023-02-11T03:36:41.065Z,1.64
2023-02-11T03:39:10.485Z,1.66
2023-02-11T03:41:38.674Z,1.71
2023-02-11T03:44:07.435Z,1.80
2023-02-11T03:46:39.048Z,1.76
2023-02-11T03:49:11.135Z,1.74
2023-02-11T03:51:39.867Z,1.73
2023-02-11T03:54:11.671Z,1.70
2023-02-11T03:56:51.003Z,1.64
2023-02-11T03:59:19.121Z,1.52
2023-02-11T04:01:47.051Z,1.41
2023-02-11T04:04:16.681Z,1.27
2023-02-11T04:06:44.686Z,1.14
2023-02-11T04:09:12.903Z,1.07
2023-02-11T04:11:40.637Z,0.87
2023-02-11T04:14:08.368Z,0.84
2023-02-11T04:16:36.145Z,0.79
2023-02-11T04:19:03.970Z,0.77
2023-02-11T04:21:33.081Z,0.77
2023-02-11T04:24:00.861Z,0.72
2023-02-11T04:26:28.658Z,0.71
2023-02-11T04:28:56.378Z,0.73
2023-02-11T04:31:24.206Z,0.80
2023-02-11T04:33:52.067Z,1.02
2023-02-11T04:36:19.810Z,1.14
2023-02-11T04:38:49.273Z,1.22
2023-02-11T04:41:17.138Z,1.31
2023-02-11T04:43:44.980Z,1.33
2023-02-11T04:46:12.902Z,1.37
2023-02-11T04:48:41.199Z,1.41
2023-02-11T04:51:08.985Z,1.44
2023-02-11T04:53:36.722Z,1.47
2023-02-11T04:56:06.371Z,1.51
2023-02-11T04:58:34.133Z,1.59
2023-02-11T05:01:07.352Z,1.62
2023-02-11T05:03:35.267Z,1.58
2023-02-11T05:06:03.107Z,1.69
2023-02-11T05:08:31.103Z,1.70
2023-02-11T05:10:59.294Z,1.65
2023-02-11T05:13:28.518Z,1.66
2023-02-11T05:15:56.407Z,1.65
2023-02-11T05:18:24.384Z,1.63
2023-02-11T05:20:52.161Z,1.57
2023-02-11T05:23:19.873Z,1.57
2023-02-11T05:25:47.642Z,1.49
2023-02-11T05:28:15.413Z,1.44
2023-02-11T05:30:44.591Z,1.35
2023-02-11T05:33:12.397Z,1.28
2023-02-11T05:35:40.168Z,1.21
2023-02-11T05:38:07.950Z,1.05
2023-02-11T05:40:35.708Z,0.98
2023-02-11T05:43:03.463Z,0.92
2023-02-11T05:45:31.452Z,0.89
2023-02-11T05:48:00.767Z,0.89
2023-02-11T05:50:28.506Z,0.87
2023-02-11T05:52:56.365Z,1.02
2023-02-11T05:55:24.334Z,1.15
2023-02-11T05:57:52.050Z,1.19
2023-02-11T06:00:20.211Z,1.26
2023-02-11T06:02:48.074Z,1.26
2023-02-11T06:05:17.318Z,1.31
2023-02-11T06:07:45.065Z,1.38
2023-02-11T06:10:13.246Z,1.47
2023-02-11T06:12:41.047Z,1.50
2023-02-11T06:15:09.256Z,1.37
2023-02-11T06:17:37.488Z,1.48
2023-02-11T06:20:06.784Z,1.48
2023-02-11T06:22:36.150Z,1.50
2023-02-11T06:25:04.147Z,1.36
2023-02-11T06:27:32.145Z,1.55
2023-02-11T06:29:59.876Z,1.52
2023-02-11T06:32:45.369Z,1.51
2023-02-11T06:35:13.889Z,1.52
2023-02-11T06:37:43.528Z,1.54
2023-02-11T06:40:12.509Z,1.51
2023-02-11T06:42:40.377Z,1.59
2023-02-11T06:45:09.573Z,1.62
2023-02-11T06:47:37.446Z,1.63
2023-02-11T06:50:05.894Z,1.60
2023-02-11T06:52:33.767Z,1.60
2023-02-11T06:55:02.885Z,1.57
2023-02-11T06:57:31.344Z,1.56
2023-02-11T06:59:59.154Z,1.52
2023-02-11T07:02:26.957Z,1.46
2023-02-11T07:04:54.888Z,1.40
2023-02-11T07:07:22.718Z,1.39
2023-02-11T07:09:50.512Z,1.38
2023-02-11T07:12:19.641Z,1.38
2023-02-11T07:14:47.396Z,1.35
2023-02-11T07:17:15.607Z,1.26
2023-02-11T07:19:43.578Z,1.37
2023-02-11T07:22:11.344Z,1.33
2023-02-11T07:24:39.256Z,1.32
2023-02-11T07:27:10.229Z,1.35
2023-02-11T07:29:39.415Z,1.43
2023-02-11T07:32:07.434Z,1.36
2023-02-11T07:34:35.484Z,1.44
2023-02-11T07:37:03.256Z,1.54
2023-02-11T07:39:31.043Z,1.62
2023-02-11T07:41:58.811Z,1.66
2023-02-11T07:44:26.693Z,1.72
2023-02-11T07:46:55.834Z,1.76
2023-02-11T07:49:24.020Z,1.80
2023-02-11T07:51:53.290Z,1.83
2023-02-11T07:54:21.805Z,1.87
2023-02-11T07:56:49.751Z,1.89
2023-02-11T07:59:18.448Z,1.91
2023-02-11T08:01:47.637Z,1.94
2023-02-11T08:04:23.339Z,1.97
2023-02-11T08:06:52.923Z,2.02
2023-02-11T08:09:22.370Z,2.07
2023-02-11T08:11:51.251Z,2.09
2023-02-11T08:14:20.947Z,2.15
2023-02-11T08:16:48.725Z,2.18
2023-02-11T08:19:18.623Z,2.21
2023-02-11T08:21:47.189Z,2.27
2023-02-11T08:24:15.345Z,2.29
2023-02-11T08:26:43.659Z,2.44
2023-02-11T08:29:13.597Z,2.58
2023-02-11T08:31:43.459Z,2.66
2023-02-11T08:34:14.395Z,2.90
2023-02-11T08:36:44.894Z,2.89
2023-02-11T08:39:19.663Z,2.86
2023-02-11T08:41:49.553Z,2.83
2023-02-11T08:44:18.218Z,2.81
2023-02-11T08:46:46.312Z,3.03
2023-02-11T08:49:14.534Z,3.13
2023-02-11T08:51:44.196Z,3.25
2023-02-11T08:54:12.765Z,3.30
2023-02-11T08:56:40.861Z,3.39
2023-02-11T08:59:09.634Z,3.33
2023-02-11T09:01:37.926Z,3.37
2023-02-11T09:04:06.741Z,3.45
2023-02-11T09:06:34.664Z,3.22
2023-02-11T09:09:04.586Z,3.12
2023-02-11T09:11:34.478Z,3.17
2023-02-11T09:14:02.408Z,3.19
2023-02-11T09:16:33.027Z,3.30
2023-02-11T09:19:02.345Z,3.30
2023-02-11T09:21:30.564Z,3.23
2023-02-11T09:23:58.763Z,3.23
2023-02-11T09:26:29.788Z,3.31
2023-02-11T09:28:58.242Z,3.35
2023-02-11T09:31:28.504Z,3.41
2023-02-11T09:33:58.484Z,3.44
2023-02-11T09:36:28.966Z,3.43
2023-02-11T09:39:02.232Z,3.43
2023-02-11T09:41:49.639Z,3.46
2023-02-11T09:44:23.263Z,3.47
2023-02-11T09:46:55.818Z,3.43
2023-02-11T09:49:28.484Z,3.23
2023-02-11T09:52:00.122Z,3.26
2023-02-11T09:54:30.385Z,3.29
2023-02-11T09:56:59.835Z,3.34
2023-02-11T09:59:28.002Z,3.35
2023-02-11T10:02:00.425Z,3.35
2023-02-11T10:04:44.539Z,3.28
2023-02-11T10:07:19.781Z,3.25
2023-02-11T10:09:58.784Z,3.24
2023-02-11T10:12:39.146Z,3.24
2023-02-11T10:15:19.258Z,3.27
2023-02-11T10:17:58.045Z,3.28
2023-02-11T10:20:33.459Z,3.27
2023-02-11T10:23:03.110Z,3.25
2023-02-11T10:25:35.432Z,3.30
2023-02-11T10:28:14.308Z,3.32
2023-02-11T10:30:45.443Z,3.16
2023-02-11T10:33:18.237Z,3.36
2023-02-11T10:35:46.273Z,3.37
2023-02-11T10:38:14.844Z,3.39
2023-02-11T10:40:42.979Z,3.47
2023-02-11T10:43:15.510Z,3.54
2023-02-11T10:45:45.385Z,3.55
2023-02-11T10:48:39.978Z,3.64
2023-02-11T10:51:19.368Z,3.74
2023-02-11T10:53:47.976Z,3.80
2023-02-11T10:56:23.327Z,3.90
2023-02-11T10:58:59.788Z,4.00
2023-02-11T11:01:41.267Z,4.12
2023-02-11T11:04:33.779Z,4.15
2023-02-11T11:07:13.367Z,4.24
2023-02-11T11:09:48.596Z,4.28
2023-02-11T11:12:36.332Z,4.29
2023-02-11T11:15:19.970Z,4.32
2023-02-11T11:17:48.452Z,4.27
2023-02-11T11:20:28.205Z,4.15
2023-02-11T11:23:10.928Z,4.15
2023-02-11T11:25:41.170Z,3.98
2023-02-11T11:28:21.793Z,4.12
2023-02-11T11:30:53.023Z,4.13
2023-02-11T11:33:22.761Z,4.14
2023-02-11T11:36:04.032Z,4.03
2023-02-11T11:38:33.204Z,4.08
2023-02-11T11:41:32.532Z,4.03
2023-02-11T11:44:03.948Z,4.03
2023-02-11T11:46:35.817Z,4.19
2023-02-11T11:49:11.347Z,4.20
2023-02-11T11:51:40.708Z,4.21
2023-02-11T11:54:12.499Z,4.28
2023-02-11T11:56:43.924Z,4.42
2023-02-11T11:59:13.528Z,4.51
2023-02-11T12:01:49.550Z,4.61
2023-02-11T12:04:29.660Z,4.64
2023-02-11T12:07:06.843Z,4.65
2023-02-11T12:09:43.079Z,4.70
2023-02-11T12:12:32.150Z,4.87
2023-02-11T12:15:09.270Z,5.02
2023-02-11T12:18:01.123Z,5.05
2023-02-11T12:20:34.056Z,4.97
2023-02-11T12:23:16.676Z,4.94
2023-02-11T12:25:48.348Z,4.89
2023-02-11T12:28:24.938Z,5.02
2023-02-11T12:31:06.771Z,5.04
2023-02-11T12:33:51.093Z,5.07
2023-02-11T12:36:28.650Z,5.12
2023-02-11T12:39:08.718Z,5.02
2023-02-11T12:42:06.093Z,5.02
2023-02-11T12:44:40.224Z,5.07
2023-02-11T12:47:15.789Z,5.10
2023-02-11T12:50:03.726Z,5.21
2023-02-11T12:52:41.989Z,5.23
2023-02-11T12:55:16.073Z,5.22
2023-02-11T12:57:44.903Z,5.18
2023-02-11T13:00:18.716Z,5.15
2023-02-11T13:02:51.098Z,5.17
2023-02-11T13:05:28.223Z,5.21
2023-02-11T13:08:00.602Z,5.26
2023-02-11T13:10:31.806Z,5.30
2023-02-11T13:13:18.239Z,5.19
2023-02-11T13:15:49.749Z,5.29
2023-02-11T13:18:48.303Z,5.25
2023-02-11T13:21:39.784Z,5.24
2023-02-11T13:24:15.463Z,5.27
2023-02-11T13:26:48.466Z,5.26
2023-02-11T13:29:27.548Z,5.29
2023-02-11T13:31:56.719Z,5.30
2023-02-11T13:34:26.146Z,5.36
2023-02-11T13:36:58.846Z,5.43
2023-02-11T13:39:26.597Z,5.45
2023-02-11T13:42:03.508Z,5.48
2023-02-11T13:44:34.618Z,5.50
2023-02-11T13:47:04.740Z,5.51
2023-02-11T13:49:36.434Z,5.54
2023-02-11T13:52:07.598Z,5.63
2023-02-11T13:54:39.419Z,5.63
2023-02-11T13:57:30.946Z,5.60
2023-02-11T13:59:59.853Z,5.57
2023-02-11T14:02:50.339Z,5.57
2023-02-11T14:05:46.169Z,5.59
2023-02-11T14:08:42.968Z,5.62
2023-02-11T14:11:45.163Z,5.62
2023-02-11T14:14:18.354Z,5.60
2023-02-11T14:17:21.777Z,5.58
2023-02-11T14:19:50.474Z,5.53
2023-02-11T14:22:21.226Z,5.55
2023-02-11T14:24:53.440Z,5.54
2023-02-11T14:27:31.224Z,5.54
2023-02-11T14:30:16.053Z,5.37
2023-02-11T14:32:52.926Z,5.57
2023-02-11T14:35:25.210Z,5.54
2023-02-11T14:37:56.963Z,5.57
2023-02-11T14:40:30.421Z,5.55
2023-02-11T14:42:59.787Z,5.56
2023-02-11T14:45:29.333Z,5.56
2023-02-11T14:48:02.775Z,5.58
2023-02-11T14:50:35.319Z,5.62
2023-02-11T14:53:06.253Z,5.61
2023-02-11T14:55:37.143Z,5.63
2023-02-11T14:58:09.865Z,5.65
2023-02-11T15:00:37.647Z,5.64
2023-02-11T15:03:05.409Z,5.59
2023-02-11T15:05:33.111Z,5.61
2023-02-11T15:08:03.877Z,5.52
2023-02-11T15:10:36.141Z,5.45
2023-02-11T15:13:04.839Z,5.25
2023-02-11T15:15:33.269Z,5.41
2023-02-11T15:18:03.174Z,5.45
2023-02-11T15:20:32.869Z,5.39
2023-02-11T15:23:04.993Z,5.38
2023-02-11T15:25:34.244Z,5.42
2023-02-11T15:28:12.902Z,5.33
2023-02-11T15:30:40.632Z,5.27
2023-02-11T15:33:23.083Z,5.33
2023-02-11T15:35:51.800Z,5.37
2023-02-11T15:38:19.635Z,5.29
2023-02-11T15:40:54.002Z,5.21
2023-02-11T15:43:23.466Z,5.24
2023-02-11T15:45:57.954Z,5.26
2023-02-11T15:48:27.687Z,5.40
2023-02-11T15:50:57.240Z,5.42
2023-02-11T15:53:28.626Z,5.36
2023-02-11T15:56:02.581Z,5.38
2023-02-11T15:58:37.538Z,5.45
2023-02-11T16:01:06.778Z,5.36
2023-02-11T16:03:34.617Z,5.55
2023-02-11T16:06:20.048Z,5.55
2023-02-11T16:09:05.222Z,5.55
2023-02-11T16:11:34.153Z,5.52
2023-02-11T16:14:07.119Z,5.50
2023-02-11T16:16:35.984Z,5.46
2023-02-11T16:19:06.167Z,5.45
2023-02-11T16:21:38.848Z,5.31
2023-02-11T16:24:07.398Z,5.38
2023-02-11T16:26:37.670Z,5.37
2023-02-11T16:29:09.437Z,5.35
2023-02-11T16:31:38.587Z,5.34
2023-02-11T16:34:13.450Z,5.29
2023-02-11T16:36:41.187Z,5.34
2023-02-11T16:39:08.995Z,5.34
2023-02-11T16:41:36.702Z,5.34
2023-02-11T16:44:04.690Z,5.33
2023-02-11T16:46:34.347Z,5.32
2023-02-11T16:49:10.310Z,5.30
2023-02-11T16:51:40.819Z,5.29
2023-02-11T16:54:08.814Z,5.23
2023-02-11T16:56:36.560Z,5.19
2023-02-11T16:59:04.299Z,5.18
2023-02-11T17:01:33.916Z,5.16
2023-02-11T17:04:02.095Z,5.16
2023-02-11T17:06:30.013Z,5.12
2023-02-11T17:08:57.749Z,5.11
2023-02-11T17:11:25.516Z,5.12
2023-02-11T17:13:53.269Z,5.12
2023-02-11T17:16:24.956Z,5.03
2023-02-11T17:18:54.868Z,5.07
2023-02-11T17:21:27.574Z,5.06
2023-02-11T17:23:56.565Z,5.09
2023-02-11T17:26:24.309Z,5.09
2023-02-11T17:28:52.023Z,5.11
2023-02-11T17:31:20.069Z,5.11
2023-02-11T17:33:48.476Z,5.12
2023-02-11T17:36:17.613Z,5.12
2023-02-11T17:38:45.326Z,5.13
2023-02-11T17:41:13.104Z,5.11
2023-02-11T17:43:40.868Z,5.08
2023-02-11T17:46:10.023Z,5.08
2023-02-11T17:48:38.569Z,5.07
2023-02-11T17:51:08.783Z,5.03
2023-02-11T17:53:37.886Z,5.03
2023-02-11T17:56:07.296Z,5.02
2023-02-11T17:58:35.032Z,5.04
2023-02-11T18:01:02.840Z,5.04
2023-02-11T18:03:30.673Z,5.06
2023-02-11T18:06:00.845Z,5.03
2023-02-11T18:08:28.585Z,5.06
2023-02-11T18:10:57.805Z,5.05
2023-02-11T18:13:25.609Z,5.05
2023-02-11T18:15:53.612Z,5.06
2023-02-11T18:18:21.594Z,5.07
2023-02-11T18:20:56.989Z,5.02
2023-02-11T18:23:24.726Z,5.03
2023-02-11T18:25:52.757Z,5.02
2023-02-11T18:28:22.145Z,5.01
2023-02-11T18:30:49.910Z,4.98
2023-02-11T18:33:17.671Z,4.97
2023-02-11T18:35:45.917Z,4.96
2023-02-11T18:38:13.690Z,4.95
2023-02-11T18:40:41.605Z,4.91
2023-02-11T18:43:09.407Z,4.87
2023-02-11T18:45:38.514Z,4.85
2023-02-11T18:48:07.007Z,4.83
2023-02-11T18:50:34.734Z,4.83
2023-02-11T18:53:02.502Z,4.81
2023-02-11T18:55:30.365Z,4.77
2023-02-11T18:57:58.181Z,4.77
2023-02-11T19:00:26.116Z,4.75
2023-02-11T19:02:55.227Z,4.71
2023-02-11T19:05:23.008Z,4.62
2023-02-11T19:07:50.793Z,4.62
2023-02-11T19:10:18.861Z,4.64
2023-02-11T19:12:46.643Z,4.59
2023-02-11T19:15:15.133Z,4.56
2023-02-11T19:17:42.985Z,4.56
2023-02-11T19:20:12.898Z,4.55
2023-02-11T19:22:40.655Z,4.60
2023-02-11T19:25:08.711Z,4.64
2023-02-11T19:27:37.609Z,4.62
2023-02-11T19:30:05.919Z,4.66
2023-02-11T19:32:34.046Z,4.64
2023-02-11T19:35:01.771Z,4.66
2023-02-11T19:37:30.969Z,4.66
2023-02-11T19:39:58.687Z,4.63
2023-02-11T19:42:27.770Z,4.62
2023-02-11T19:44:55.561Z,4.65
2023-02-11T19:47:27.769Z,4.66
2023-02-11T19:49:55.873Z,4.70
2023-02-11T19:52:23.649Z,4.71
2023-02-11T19:54:53.027Z,4.71
2023-02-11T19:57:20.905Z,4.71
2023-02-11T19:59:49.812Z,4.74
2023-02-11T20:02:18.778Z,4.73
2023-02-11T20:04:46.548Z,4.74
2023-02-11T20:07:14.418Z,4.73
2023-02-11T20:09:42.646Z,4.71
2023-02-11T20:12:12.147Z,4.67
2023-02-11T20:14:40.089Z,4.68
2023-02-11T20:17:07.819Z,4.69
2023-02-11T20:19:35.758Z,4.68
2023-02-11T20:22:03.481Z,4.74
2023-02-11T20:24:31.246Z,4.78
2023-02-11T20:26:59.077Z,4.80
2023-02-11T20:29:32.058Z,4.80
2023-02-11T20:32:00.692Z,4.75
2023-02-11T20:34:29.500Z,4.75
2023-02-11T20:36:57.531Z,4.79
2023-02-11T20:39:26.861Z,4.81
2023-02-11T20:41:55.060Z,4.86
2023-02-11T20:44:23.351Z,4.91
2023-02-11T20:46:54.067Z,4.88
2023-02-11T20:49:24.347Z,4.86
2023-02-11T20:51:53.687Z,4.83
2023-02-11T20:54:22.372Z,4.84
2023-02-11T20:56:51.798Z,4.85
2023-02-11T20:59:20.973Z,4.79
2023-02-11T21:01:50.810Z,4.78
2023-02-11T21:04:21.779Z,4.79
2023-02-11T21:06:52.188Z,4.65
2023-02-11T21:09:22.000Z,4.68
2023-02-11T21:11:51.301Z,4.64
2023-02-11T21:14:20.292Z,4.58
2023-02-11T21:16:48.785Z,4.54
2023-02-11T21:19:17.042Z,4.47
2023-02-11T21:21:46.405Z,4.53
2023-02-11T21:24:14.308Z,4.53
2023-02-11T21:26:42.193Z,4.53
2023-02-11T21:29:10.385Z,4.51
2023-02-11T21:31:38.363Z,4.52
2023-02-11T21:34:07.256Z,4.48
2023-02-11T21:36:35.614Z,4.52
2023-02-11T21:39:05.999Z,4.54
2023-02-11T21:41:33.798Z,4.53
2023-02-11T21:44:01.759Z,4.53
2023-02-11T21:46:29.602Z,4.50
2023-02-11T21:48:58.378Z,4.47
2023-02-11T21:51:26.993Z,4.42
2023-02-11T21:53:55.757Z,4.38
2023-02-11T21:56:26.377Z,4.30
2023-02-11T21:58:55.753Z,4.24
2023-02-11T22:01:25.446Z,3.99
2023-02-11T22:03:53.368Z,4.18
2023-02-11T22:06:23.249Z,4.17
2023-02-11T22:08:51.348Z,4.19
2023-02-11T22:11:19.802Z,4.21
2023-02-11T22:13:49.246Z,4.23
2023-02-11T22:16:18.057Z,4.29
2023-02-11T22:18:46.518Z,4.29
2023-02-11T22:21:17.657Z,4.30
2023-02-11T22:23:45.926Z,4.17
2023-02-11T22:26:16.172Z,4.36
2023-02-11T22:28:44.134Z,4.38
2023-02-11T22:31:15.329Z,4.43
2023-02-11T22:33:43.356Z,4.46
2023-02-11T22:36:15.991Z,4.47
2023-02-11T22:38:43.738Z,4.49
2023-02-11T22:41:12.192Z,4.50
2023-02-11T22:43:40.415Z,4.50
2023-02-11T22:46:08.796Z,4.52
2023-02-11T22:48:38.013Z,4.56
2023-02-11T22:51:06.689Z,4.54
2023-02-11T22:53:34.994Z,4.53
2023-02-11T22:56:04.469Z,4.51
2023-02-11T22:58:32.575Z,4.49
2023-02-11T23:01:00.357Z,4.48
2023-02-11T23:03:28.702Z,4.45
2023-02-11T23:05:58.786Z,4.47
2023-02-11T23:08:27.478Z,4.27
2023-02-11T23:10:55.280Z,4.42
2023-02-11T23:13:23.212Z,4.42
2023-02-11T23:15:51.052Z,4.42
2023-02-11T23:18:18.943Z,4.42
2023-02-11T23:20:47.047Z,4.43
2023-02-11T23:23:18.291Z,4.45
2023-02-11T23:25:46.481Z,4.42
2023-02-11T23:28:14.646Z,4.42
2023-02-11T23:30:42.691Z,4.43
2023-02-11T23:33:10.819Z,4.43
2023-02-11T23:35:43.446Z,4.43
2023-02-11T23:38:11.443Z,4.45
2023-02-11T23:40:40.834Z,4.46
2023-02-11T23:43:10.438Z,4.44
2023-02-11T23:45:38.467Z,4.43
2023-02-11T23:48:06.495Z,4.43
2023-02-11T23:50:35.936Z,4.44
2023-02-11T23:53:04.178Z,4.43
2023-02-11T23:55:32.620Z,4.42
2023-02-11T23:58:02.277Z,4.41
